sensor_id;sensor_type;location;lat;lon;timestamp;P1;durP1;ratioP1;P2;durP2;ratioP2
11313;SDS011;5712;48.858;9.206;2022-08-19T00:00:48;13.87;;;12.47;;
11313;SDS011;5712;48.858;9.206;2022-08-19T00:03:15;13.93;;;12.43;;
11313;SDS011;5712;48.858;9.206;2022-08-19T00:05:42;14.07;;;12.57;;
11313;SDS011;5712;48.858;9.206;2022-08-19T00:08:10;14.30;;;12.20;;
11313;SDS011;5712;48.858;9.206;2022-08-19T00:10:37;15.17;;;13.57;;
11313;SDS011;5712;48.858;9.206;2022-08-19T00:13:03;14.13;;;12.63;;
11313;SDS011;5712;48.858;9.206;2022-08-19T00:15:30;13.20;;;11.90;;
11313;SDS011;5712;48.858;9.206;2022-08-19T00:17:57;14.03;;;12.53;;
11313;SDS011;5712;48.858;9.206;2022-08-19T00:20:24;14.33;;;12.83;;
11313;SDS011;5712;48.858;9.206;2022-08-19T00:22:51;13.90;;;12.50;;
11313;SDS011;5712;48.858;9.206;2022-08-19T00:25:19;13.53;;;11.33;;
11313;SDS011;5712;48.858;9.206;2022-08-19T00:27:46;14.77;;;13.20;;
11313;SDS011;5712;48.858;9.206;2022-08-19T00:30:12;13.20;;;11.80;;
11313;SDS011;5712;48.858;9.206;2022-08-19T00:32:39;13.20;;;11.77;;
11313;SDS011;5712;48.858;9.206;2022-08-19T00:35:07;13.00;;;11.70;;
11313;SDS011;5712;48.858;9.206;2022-08-19T00:37:34;15.00;;;12.83;;
11313;SDS011;5712;48.858;9.206;2022-08-19T00:40:02;13.53;;;12.00;;
11313;SDS011;5712;48.858;9.206;2022-08-19T00:42:32;14.30;;;11.87;;
11313;SDS011;5712;48.858;9.206;2022-08-19T00:44:59;13.90;;;12.23;;
11313;SDS011;5712;48.858;9.206;2022-08-19T00:47:25;13.53;;;12.10;;
11313;SDS011;5712;48.858;9.206;2022-08-19T00:49:53;13.80;;;12.27;;
11313;SDS011;5712;48.858;9.206;2022-08-19T00:52:24;12.70;;;11.40;;
11313;SDS011;5712;48.858;9.206;2022-08-19T00:54:55;12.10;;;10.90;;
11313;SDS011;5712;48.858;9.206;2022-08-19T00:57:25;12.80;;;11.43;;
11313;SDS011;5712;48.858;9.206;2022-08-19T00:59:58;13.50;;;12.10;;
11313;SDS011;5712;48.858;9.206;2022-08-19T01:02:27;13.30;;;11.90;;
11313;SDS011;5712;48.858;9.206;2022-08-19T01:04:54;14.20;;;12.40;;
11313;SDS011;5712;48.858;9.206;2022-08-19T01:07:21;13.37;;;12.00;;
11313;SDS011;5712;48.858;9.206;2022-08-19T01:09:48;12.93;;;11.30;;
11313;SDS011;5712;48.858;9.206;2022-08-19T01:12:15;13.93;;;11.97;;
11313;SDS011;5712;48.858;9.206;2022-08-19T01:14:43;14.27;;;12.37;;
11313;SDS011;5712;48.858;9.206;2022-08-19T01:17:12;15.00;;;12.87;;
11313;SDS011;5712;48.858;9.206;2022-08-19T01:19:41;14.57;;;12.63;;
11313;SDS011;5712;48.858;9.206;2022-08-19T01:22:11;14.97;;;12.57;;
11313;SDS011;5712;48.858;9.206;2022-08-19T01:24:42;14.93;;;12.00;;
11313;SDS011;5712;48.858;9.206;2022-08-19T01:27:09;14.50;;;12.53;;
11313;SDS011;5712;48.858;9.206;2022-08-19T01:29:37;14.43;;;12.93;;
11313;SDS011;5712;48.858;9.206;2022-08-19T01:32:05;16.40;;;13.20;;
11313;SDS011;5712;48.858;9.206;2022-08-19T01:34:33;13.13;;;11.73;;
11313;SDS011;5712;48.858;9.206;2022-08-19T01:37:00;15.47;;;13.20;;
11313;SDS011;5712;48.858;9.206;2022-08-19T01:39:33;15.27;;;12.87;;
11313;SDS011;5712;48.858;9.206;2022-08-19T01:42:01;13.97;;;12.47;;
11313;SDS011;5712;48.858;9.206;2022-08-19T01:44:29;15.63;;;12.93;;
11313;SDS011;5712;48.858;9.206;2022-08-19T01:46:56;14.83;;;13.20;;
11313;SDS011;5712;48.858;9.206;2022-08-19T01:49:23;15.33;;;13.23;;
11313;SDS011;5712;48.858;9.206;2022-08-19T01:51:52;15.00;;;12.90;;
11313;SDS011;5712;48.858;9.206;2022-08-19T01:54:20;15.13;;;13.07;;
11313;SDS011;5712;48.858;9.206;2022-08-19T01:56:48;17.77;;;14.33;;
11313;SDS011;5712;48.858;9.206;2022-08-19T01:59:17;15.07;;;13.13;;
11313;SDS011;5712;48.858;9.206;2022-08-19T02:01:47;15.87;;;13.40;;
11313;SDS011;5712;48.858;9.206;2022-08-19T02:04:14;16.90;;;14.03;;
11313;SDS011;5712;48.858;9.206;2022-08-19T02:06:41;15.13;;;13.53;;
11313;SDS011;5712;48.858;9.206;2022-08-19T02:09:07;15.00;;;13.40;;
11313;SDS011;5712;48.858;9.206;2022-08-19T02:11:36;15.93;;;13.00;;
11313;SDS011;5712;48.858;9.206;2022-08-19T02:14:05;16.43;;;13.70;;
11313;SDS011;5712;48.858;9.206;2022-08-19T02:16:34;14.73;;;13.13;;
11313;SDS011;5712;48.858;9.206;2022-08-19T02:19:02;14.27;;;12.77;;
11313;SDS011;5712;48.858;9.206;2022-08-19T02:21:29;16.63;;;14.50;;
11313;SDS011;5712;48.858;9.206;2022-08-19T02:23:57;17.17;;;14.93;;
11313;SDS011;5712;48.858;9.206;2022-08-19T02:26:24;16.73;;;13.70;;
11313;SDS011;5712;48.858;9.206;2022-08-19T02:28:52;18.53;;;14.97;;
11313;SDS011;5712;48.858;9.206;2022-08-19T02:31:21;18.13;;;14.67;;
11313;SDS011;5712;48.858;9.206;2022-08-19T02:33:50;18.37;;;14.63;;
11313;SDS011;5712;48.858;9.206;2022-08-19T02:36:18;16.47;;;14.47;;
11313;SDS011;5712;48.858;9.206;2022-08-19T02:38:44;18.53;;;14.73;;
11313;SDS011;5712;48.858;9.206;2022-08-19T02:41:11;18.40;;;15.77;;
11313;SDS011;5712;48.858;9.206;2022-08-19T02:43:40;17.63;;;15.00;;
11313;SDS011;5712;48.858;9.206;2022-08-19T02:46:14;20.37;;;16.33;;
11313;SDS011;5712;48.858;9.206;2022-08-19T02:48:46;18.70;;;15.50;;
11313;SDS011;5712;48.858;9.206;2022-08-19T02:51:19;21.77;;;17.27;;
11313;SDS011;5712;48.858;9.206;2022-08-19T02:53:47;18.03;;;15.23;;
11313;SDS011;5712;48.858;9.206;2022-08-19T02:56:14;20.07;;;16.37;;
11313;SDS011;5712;48.858;9.206;2022-08-19T02:58:41;20.53;;;16.47;;
11313;SDS011;5712;48.858;9.206;2022-08-19T03:01:09;19.03;;;15.97;;
11313;SDS011;5712;48.858;9.206;2022-08-19T03:03:37;21.47;;;17.37;;
11313;SDS011;5712;48.858;9.206;2022-08-19T03:06:05;22.00;;;17.37;;
11313;SDS011;5712;48.858;9.206;2022-08-19T03:08:36;23.63;;;18.33;;
11313;SDS011;5712;48.858;9.206;2022-08-19T03:11:03;19.07;;;15.97;;
11313;SDS011;5712;48.858;9.206;2022-08-19T03:13:30;20.13;;;16.83;;
11313;SDS011;5712;48.858;9.206;2022-08-19T03:15:57;21.60;;;18.53;;
11313;SDS011;5712;48.858;9.206;2022-08-19T03:18:23;21.97;;;17.50;;
11313;SDS011;5712;48.858;9.206;2022-08-19T03:20:51;20.00;;;16.90;;
11313;SDS011;5712;48.858;9.206;2022-08-19T03:23:19;19.73;;;16.77;;
11313;SDS011;5712;48.858;9.206;2022-08-19T03:25:48;20.80;;;17.03;;
11313;SDS011;5712;48.858;9.206;2022-08-19T03:28:15;21.23;;;17.30;;
11313;SDS011;5712;48.858;9.206;2022-08-19T03:30:44;23.23;;;17.57;;
11313;SDS011;5712;48.858;9.206;2022-08-19T03:33:22;22.03;;;17.73;;
11313;SDS011;5712;48.858;9.206;2022-08-19T03:35:58;22.73;;;18.00;;
11313;SDS011;5712;48.858;9.206;2022-08-19T03:38:26;20.43;;;17.97;;
11313;SDS011;5712;48.858;9.206;2022-08-19T03:40:54;20.93;;;17.53;;
11313;SDS011;5712;48.858;9.206;2022-08-19T03:43:21;23.73;;;18.97;;
11313;SDS011;5712;48.858;9.206;2022-08-19T03:45:47;20.37;;;16.70;;
11313;SDS011;5712;48.858;9.206;2022-08-19T03:48:16;22.27;;;18.00;;
11313;SDS011;5712;48.858;9.206;2022-08-19T03:50:42;23.37;;;19.17;;
11313;SDS011;5712;48.858;9.206;2022-08-19T03:53:09;22.17;;;18.23;;
11313;SDS011;5712;48.858;9.206;2022-08-19T03:55:38;23.77;;;19.67;;
11313;SDS011;5712;48.858;9.206;2022-08-19T03:58:07;24.23;;;20.03;;
11313;SDS011;5712;48.858;9.206;2022-08-19T04:00:36;21.40;;;18.87;;
11313;SDS011;5712;48.858;9.206;2022-08-19T04:03:03;22.87;;;18.60;;
11313;SDS011;5712;48.858;9.206;2022-08-19T04:05:29;20.33;;;18.13;;
11313;SDS011;5712;48.858;9.206;2022-08-19T04:07:56;20.13;;;17.17;;
11313;SDS011;5712;48.858;9.206;2022-08-19T04:10:23;20.43;;;17.63;;
11313;SDS011;5712;48.858;9.206;2022-08-19T04:12:50;22.77;;;18.70;;
11313;SDS011;5712;48.858;9.206;2022-08-19T04:15:18;22.13;;;18.83;;
11313;SDS011;5712;48.858;9.206;2022-08-19T04:17:45;21.43;;;18.33;;
11313;SDS011;5712;48.858;9.206;2022-08-19T04:20:12;23.20;;;19.13;;
11313;SDS011;5712;48.858;9.206;2022-08-19T04:22:39;22.40;;;18.30;;
11313;SDS011;5712;48.858;9.206;2022-08-19T04:25:06;22.77;;;19.43;;
11313;SDS011;5712;48.858;9.206;2022-08-19T04:27:33;23.67;;;18.93;;
11313;SDS011;5712;48.858;9.206;2022-08-19T04:30:00;23.33;;;19.77;;
11313;SDS011;5712;48.858;9.206;2022-08-19T04:32:28;22.87;;;19.93;;
11313;SDS011;5712;48.858;9.206;2022-08-19T04:34:56;21.20;;;17.93;;
11313;SDS011;5712;48.858;9.206;2022-08-19T04:37:24;24.03;;;19.87;;
11313;SDS011;5712;48.858;9.206;2022-08-19T04:39:51;22.47;;;19.00;;
11313;SDS011;5712;48.858;9.206;2022-08-19T04:42:35;21.93;;;19.13;;
11313;SDS011;5712;48.858;9.206;2022-08-19T04:45:05;22.63;;;19.43;;
11313;SDS011;5712;48.858;9.206;2022-08-19T04:47:36;22.27;;;19.67;;
11313;SDS011;5712;48.858;9.206;2022-08-19T04:50:04;23.13;;;19.57;;
11313;SDS011;5712;48.858;9.206;2022-08-19T04:52:31;24.63;;;20.57;;
11313;SDS011;5712;48.858;9.206;2022-08-19T04:54:58;24.20;;;19.37;;
11313;SDS011;5712;48.858;9.206;2022-08-19T04:57:25;25.03;;;20.57;;
11313;SDS011;5712;48.858;9.206;2022-08-19T04:59:53;21.70;;;19.00;;
11313;SDS011;5712;48.858;9.206;2022-08-19T05:02:20;27.20;;;21.80;;
11313;SDS011;5712;48.858;9.206;2022-08-19T05:04:49;23.73;;;19.83;;
11313;SDS011;5712;48.858;9.206;2022-08-19T05:07:16;24.27;;;21.30;;
11313;SDS011;5712;48.858;9.206;2022-08-19T05:09:43;26.37;;;21.27;;
11313;SDS011;5712;48.858;9.206;2022-08-19T05:12:09;22.97;;;19.77;;
11313;SDS011;5712;48.858;9.206;2022-08-19T05:14:36;23.80;;;19.77;;
11313;SDS011;5712;48.858;9.206;2022-08-19T05:17:03;23.27;;;19.47;;
11313;SDS011;5712;48.858;9.206;2022-08-19T05:19:29;23.20;;;19.03;;
11313;SDS011;5712;48.858;9.206;2022-08-19T05:22:15;26.20;;;20.67;;
11313;SDS011;5712;48.858;9.206;2022-08-19T05:25:02;22.77;;;19.07;;
11313;SDS011;5712;48.858;9.206;2022-08-19T05:27:31;22.40;;;19.73;;
11313;SDS011;5712;48.858;9.206;2022-08-19T05:29:57;24.30;;;19.70;;
11313;SDS011;5712;48.858;9.206;2022-08-19T05:32:24;26.57;;;21.03;;
11313;SDS011;5712;48.858;9.206;2022-08-19T05:34:53;25.70;;;20.57;;
11313;SDS011;5712;48.858;9.206;2022-08-19T05:37:21;21.53;;;19.23;;
11313;SDS011;5712;48.858;9.206;2022-08-19T05:39:51;23.73;;;19.83;;
11313;SDS011;5712;48.858;9.206;2022-08-19T05:42:19;26.03;;;21.30;;
11313;SDS011;5712;48.858;9.206;2022-08-19T05:44:48;22.40;;;18.77;;
11313;SDS011;5712;48.858;9.206;2022-08-19T05:47:15;23.67;;;20.53;;
11313;SDS011;5712;48.858;9.206;2022-08-19T05:49:44;24.03;;;19.67;;
11313;SDS011;5712;48.858;9.206;2022-08-19T05:52:12;21.10;;;18.37;;
11313;SDS011;5712;48.858;9.206;2022-08-19T05:54:43;22.73;;;18.47;;
11313;SDS011;5712;48.858;9.206;2022-08-19T05:57:12;27.57;;;21.93;;
11313;SDS011;5712;48.858;9.206;2022-08-19T05:59:39;28.40;;;20.23;;
11313;SDS011;5712;48.858;9.206;2022-08-19T06:02:07;24.03;;;20.27;;
11313;SDS011;5712;48.858;9.206;2022-08-19T06:04:33;31.43;;;21.53;;
11313;SDS011;5712;48.858;9.206;2022-08-19T06:07:00;23.30;;;19.73;;
11313;SDS011;5712;48.858;9.206;2022-08-19T06:09:27;23.70;;;20.00;;
11313;SDS011;5712;48.858;9.206;2022-08-19T06:11:56;24.20;;;20.50;;
11313;SDS011;5712;48.858;9.206;2022-08-19T06:14:26;30.47;;;21.63;;
11313;SDS011;5712;48.858;9.206;2022-08-19T06:16:55;20.93;;;18.70;;
11313;SDS011;5712;48.858;9.206;2022-08-19T06:19:22;21.30;;;18.97;;
11313;SDS011;5712;48.858;9.206;2022-08-19T06:21:50;23.63;;;20.23;;
11313;SDS011;5712;48.858;9.206;2022-08-19T06:24:19;23.33;;;19.83;;
11313;SDS011;5712;48.858;9.206;2022-08-19T06:26:48;27.83;;;21.73;;
11313;SDS011;5712;48.858;9.206;2022-08-19T06:29:18;22.30;;;19.10;;
11313;SDS011;5712;48.858;9.206;2022-08-19T06:31:46;21.77;;;19.40;;
11313;SDS011;5712;48.858;9.206;2022-08-19T06:34:15;21.17;;;18.17;;
11313;SDS011;5712;48.858;9.206;2022-08-19T06:36:43;22.23;;;19.53;;
11313;SDS011;5712;48.858;9.206;2022-08-19T06:39:12;22.10;;;19.23;;
11313;SDS011;5712;48.858;9.206;2022-08-19T06:41:41;27.53;;;21.10;;
11313;SDS011;5712;48.858;9.206;2022-08-19T06:44:09;25.27;;;21.40;;
11313;SDS011;5712;48.858;9.206;2022-08-19T06:46:39;26.03;;;20.03;;
11313;SDS011;5712;48.858;9.206;2022-08-19T06:49:07;25.47;;;21.00;;
11313;SDS011;5712;48.858;9.206;2022-08-19T06:51:35;26.20;;;21.77;;
11313;SDS011;5712;48.858;9.206;2022-08-19T06:54:01;25.80;;;21.57;;
11313;SDS011;5712;48.858;9.206;2022-08-19T06:56:30;25.23;;;20.40;;
11313;SDS011;5712;48.858;9.206;2022-08-19T06:58:59;26.73;;;22.17;;
11313;SDS011;5712;48.858;9.206;2022-08-19T07:01:26;26.57;;;21.80;;
11313;SDS011;5712;48.858;9.206;2022-08-19T07:03:54;22.37;;;18.80;;
11313;SDS011;5712;48.858;9.206;2022-08-19T07:06:21;24.17;;;20.13;;
11313;SDS011;5712;48.858;9.206;2022-08-19T07:08:48;22.80;;;19.23;;
11313;SDS011;5712;48.858;9.206;2022-08-19T07:11:16;25.80;;;20.00;;
11313;SDS011;5712;48.858;9.206;2022-08-19T07:13:44;22.23;;;18.97;;
11313;SDS011;5712;48.858;9.206;2022-08-19T07:16:13;21.00;;;17.90;;
11313;SDS011;5712;48.858;9.206;2022-08-19T07:18:42;22.10;;;19.17;;
11313;SDS011;5712;48.858;9.206;2022-08-19T07:21:15;24.50;;;20.40;;
11313;SDS011;5712;48.858;9.206;2022-08-19T07:23:43;21.97;;;18.97;;
11313;SDS011;5712;48.858;9.206;2022-08-19T07:26:14;21.60;;;18.47;;
11313;SDS011;5712;48.858;9.206;2022-08-19T07:28:44;22.97;;;19.73;;
11313;SDS011;5712;48.858;9.206;2022-08-19T07:31:12;20.00;;;17.70;;
11313;SDS011;5712;48.858;9.206;2022-08-19T07:33:43;19.27;;;16.63;;
11313;SDS011;5712;48.858;9.206;2022-08-19T07:36:13;19.53;;;16.77;;
11313;SDS011;5712;48.858;9.206;2022-08-19T07:38:43;19.67;;;17.53;;
11313;SDS011;5712;48.858;9.206;2022-08-19T07:41:15;21.23;;;18.83;;
11313;SDS011;5712;48.858;9.206;2022-08-19T07:43:43;18.50;;;16.57;;
11313;SDS011;5712;48.858;9.206;2022-08-19T07:46:11;22.47;;;17.67;;
11313;SDS011;5712;48.858;9.206;2022-08-19T07:48:40;20.43;;;17.90;;
11313;SDS011;5712;48.858;9.206;2022-08-19T07:51:09;20.67;;;17.40;;
11313;SDS011;5712;48.858;9.206;2022-08-19T07:53:38;21.83;;;17.60;;
11313;SDS011;5712;48.858;9.206;2022-08-19T07:56:05;19.07;;;17.07;;
11313;SDS011;5712;48.858;9.206;2022-08-19T07:58:33;19.30;;;16.73;;
11313;SDS011;5712;48.858;9.206;2022-08-19T08:01:03;18.27;;;15.90;;
11313;SDS011;5712;48.858;9.206;2022-08-19T08:03:31;19.77;;;17.67;;
11313;SDS011;5712;48.858;9.206;2022-08-19T08:06:17;19.80;;;16.47;;
11313;SDS011;5712;48.858;9.206;2022-08-19T08:09:14;18.33;;;16.33;;
11313;SDS011;5712;48.858;9.206;2022-08-19T08:11:48;19.27;;;16.00;;
11313;SDS011;5712;48.858;9.206;2022-08-19T08:14:17;19.20;;;17.13;;
11313;SDS011;5712;48.858;9.206;2022-08-19T08:16:46;18.23;;;16.17;;
11313;SDS011;5712;48.858;9.206;2022-08-19T08:19:16;17.20;;;15.33;;
11313;SDS011;5712;48.858;9.206;2022-08-19T08:21:45;19.63;;;17.20;;
11313;SDS011;5712;48.858;9.206;2022-08-19T08:24:12;20.10;;;17.27;;
11313;SDS011;5712;48.858;9.206;2022-08-19T08:26:39;22.53;;;17.87;;
11313;SDS011;5712;48.858;9.206;2022-08-19T08:29:07;22.00;;;18.03;;
11313;SDS011;5712;48.858;9.206;2022-08-19T08:31:38;26.77;;;19.77;;
11313;SDS011;5712;48.858;9.206;2022-08-19T08:34:06;27.63;;;21.67;;
11313;SDS011;5712;48.858;9.206;2022-08-19T08:36:35;25.73;;;21.00;;
11313;SDS011;5712;48.858;9.206;2022-08-19T08:39:08;25.50;;;19.47;;
11313;SDS011;5712;48.858;9.206;2022-08-19T08:41:38;23.30;;;19.13;;
11313;SDS011;5712;48.858;9.206;2022-08-19T08:44:13;25.23;;;20.40;;
11313;SDS011;5712;48.858;9.206;2022-08-19T08:46:44;23.20;;;19.07;;
11313;SDS011;5712;48.858;9.206;2022-08-19T08:49:30;23.43;;;18.73;;
11313;SDS011;5712;48.858;9.206;2022-08-19T08:52:06;22.57;;;18.70;;
11313;SDS011;5712;48.858;9.206;2022-08-19T08:54:39;19.93;;;17.80;;
11313;SDS011;5712;48.858;9.206;2022-08-19T08:57:09;21.97;;;17.80;;
11313;SDS011;5712;48.858;9.206;2022-08-19T08:59:41;19.40;;;17.30;;
11313;SDS011;5712;48.858;9.206;2022-08-19T09:02:09;20.97;;;17.37;;
11313;SDS011;5712;48.858;9.206;2022-08-19T09:04:36;18.10;;;16.03;;
11313;SDS011;5712;48.858;9.206;2022-08-19T09:07:20;18.47;;;16.13;;
11313;SDS011;5712;48.858;9.206;2022-08-19T09:10:01;19.93;;;16.23;;
11313;SDS011;5712;48.858;9.206;2022-08-19T09:12:33;18.10;;;15.20;;
11313;SDS011;5712;48.858;9.206;2022-08-19T09:15:05;18.47;;;16.50;;
11313;SDS011;5712;48.858;9.206;2022-08-19T09:17:35;19.73;;;16.60;;
11313;SDS011;5712;48.858;9.206;2022-08-19T09:20:04;17.13;;;14.77;;
11313;SDS011;5712;48.858;9.206;2022-08-19T09:22:40;18.27;;;15.37;;
11313;SDS011;5712;48.858;9.206;2022-08-19T09:25:11;18.47;;;15.77;;
11313;SDS011;5712;48.858;9.206;2022-08-19T09:27:40;17.43;;;15.43;;
11313;SDS011;5712;48.858;9.206;2022-08-19T09:30:08;17.43;;;15.63;;
11313;SDS011;5712;48.858;9.206;2022-08-19T09:32:39;18.93;;;15.90;;
11313;SDS011;5712;48.858;9.206;2022-08-19T09:35:07;16.40;;;14.43;;
11313;SDS011;5712;48.858;9.206;2022-08-19T09:37:34;17.00;;;14.47;;
11313;SDS011;5712;48.858;9.206;2022-08-19T09:40:01;17.40;;;14.97;;
11313;SDS011;5712;48.858;9.206;2022-08-19T09:42:30;17.47;;;15.43;;
11313;SDS011;5712;48.858;9.206;2022-08-19T09:44:57;15.73;;;14.07;;
11313;SDS011;5712;48.858;9.206;2022-08-19T09:47:24;14.73;;;13.20;;
11313;SDS011;5712;48.858;9.206;2022-08-19T09:49:50;18.03;;;13.83;;
11313;SDS011;5712;48.858;9.206;2022-08-19T09:52:17;16.53;;;14.73;;
11313;SDS011;5712;48.858;9.206;2022-08-19T09:54:44;16.93;;;13.70;;
11313;SDS011;5712;48.858;9.206;2022-08-19T09:57:11;16.33;;;13.77;;
11313;SDS011;5712;48.858;9.206;2022-08-19T09:59:39;15.90;;;13.90;;
11313;SDS011;5712;48.858;9.206;2022-08-19T10:02:06;14.90;;;13.30;;
11313;SDS011;5712;48.858;9.206;2022-08-19T10:04:34;15.33;;;13.10;;
11313;SDS011;5712;48.858;9.206;2022-08-19T10:07:15;15.87;;;14.27;;
11313;SDS011;5712;48.858;9.206;2022-08-19T10:09:42;16.20;;;13.43;;
11313;SDS011;5712;48.858;9.206;2022-08-19T10:12:08;14.93;;;13.37;;
11313;SDS011;5712;48.858;9.206;2022-08-19T10:14:35;15.23;;;12.83;;
11313;SDS011;5712;48.858;9.206;2022-08-19T10:17:03;17.37;;;13.77;;
11313;SDS011;5712;48.858;9.206;2022-08-19T10:19:30;14.07;;;12.57;;
11313;SDS011;5712;48.858;9.206;2022-08-19T10:22:02;15.07;;;13.17;;
11313;SDS011;5712;48.858;9.206;2022-08-19T10:24:29;15.30;;;13.37;;
11313;SDS011;5712;48.858;9.206;2022-08-19T10:26:56;14.10;;;12.60;;
11313;SDS011;5712;48.858;9.206;2022-08-19T10:29:23;15.60;;;12.10;;
11313;SDS011;5712;48.858;9.206;2022-08-19T10:31:49;14.47;;;12.83;;
11313;SDS011;5712;48.858;9.206;2022-08-19T10:34:18;13.23;;;11.47;;
11313;SDS011;5712;48.858;9.206;2022-08-19T10:36:44;14.03;;;11.70;;
11313;SDS011;5712;48.858;9.206;2022-08-19T10:39:11;14.83;;;12.73;;
11313;SDS011;5712;48.858;9.206;2022-08-19T10:41:39;13.53;;;10.73;;
11313;SDS011;5712;48.858;9.206;2022-08-19T10:44:09;13.23;;;11.03;;
11313;SDS011;5712;48.858;9.206;2022-08-19T10:46:38;12.03;;;10.70;;
11313;SDS011;5712;48.858;9.206;2022-08-19T10:49:08;11.60;;;10.23;;
11313;SDS011;5712;48.858;9.206;2022-08-19T10:51:38;12.40;;;10.10;;
11313;SDS011;5712;48.858;9.206;2022-08-19T10:54:23;10.47;;;9.37;;
11313;SDS011;5712;48.858;9.206;2022-08-19T10:57:11;11.97;;;8.90;;
11313;SDS011;5712;48.858;9.206;2022-08-19T10:59:37;11.63;;;8.87;;
11313;SDS011;5712;48.858;9.206;2022-08-19T11:02:06;10.27;;;8.33;;
11313;SDS011;5712;48.858;9.206;2022-08-19T11:04:35;8.70;;;7.80;;
11313;SDS011;5712;48.858;9.206;2022-08-19T11:07:03;8.63;;;7.83;;
11313;SDS011;5712;48.858;9.206;2022-08-19T11:09:35;9.10;;;8.17;;
11313;SDS011;5712;48.858;9.206;2022-08-19T11:12:04;8.10;;;7.30;;
11313;SDS011;5712;48.858;9.206;2022-08-19T11:14:33;8.50;;;7.77;;
11313;SDS011;5712;48.858;9.206;2022-08-19T11:17:00;10.90;;;8.43;;
11313;SDS011;5712;48.858;9.206;2022-08-19T11:19:27;8.87;;;7.97;;
11313;SDS011;5712;48.858;9.206;2022-08-19T11:21:55;9.00;;;8.10;;
11313;SDS011;5712;48.858;9.206;2022-08-19T11:24:24;9.37;;;8.47;;
11313;SDS011;5712;48.858;9.206;2022-08-19T11:26:53;8.70;;;7.90;;
11313;SDS011;5712;48.858;9.206;2022-08-19T11:29:24;8.77;;;7.97;;
11313;SDS011;5712;48.858;9.206;2022-08-19T11:31:53;8.60;;;7.80;;
11313;SDS011;5712;48.858;9.206;2022-08-19T11:34:22;9.23;;;8.33;;
11313;SDS011;5712;48.858;9.206;2022-08-19T11:36:50;8.73;;;7.83;;
11313;SDS011;5712;48.858;9.206;2022-08-19T11:39:18;8.57;;;7.67;;
11313;SDS011;5712;48.858;9.206;2022-08-19T11:41:47;8.53;;;7.73;;
11313;SDS011;5712;48.858;9.206;2022-08-19T11:44:14;9.97;;;8.53;;
11313;SDS011;5712;48.858;9.206;2022-08-19T11:46:41;10.20;;;8.13;;
11313;SDS011;5712;48.858;9.206;2022-08-19T11:49:10;8.50;;;7.57;;
11313;SDS011;5712;48.858;9.206;2022-08-19T11:51:38;8.73;;;7.93;;
11313;SDS011;5712;48.858;9.206;2022-08-19T11:54:07;9.43;;;8.17;;
11313;SDS011;5712;48.858;9.206;2022-08-19T11:56:34;9.23;;;8.13;;
11313;SDS011;5712;48.858;9.206;2022-08-19T11:59:04;8.87;;;8.07;;
11313;SDS011;5712;48.858;9.206;2022-08-19T12:01:30;9.10;;;8.20;;
11313;SDS011;5712;48.858;9.206;2022-08-19T12:03:57;10.27;;;8.83;;
11313;SDS011;5712;48.858;9.206;2022-08-19T12:06:25;9.30;;;8.50;;
11313;SDS011;5712;48.858;9.206;2022-08-19T12:08:54;9.60;;;8.30;;
11313;SDS011;5712;48.858;9.206;2022-08-19T12:11:21;8.50;;;7.70;;
11313;SDS011;5712;48.858;9.206;2022-08-19T12:13:48;8.50;;;7.70;;
11313;SDS011;5712;48.858;9.206;2022-08-19T12:16:17;8.70;;;7.90;;
11313;SDS011;5712;48.858;9.206;2022-08-19T12:18:46;9.97;;;8.93;;
11313;SDS011;5712;48.858;9.206;2022-08-19T12:21:13;9.33;;;8.40;;
11313;SDS011;5712;48.858;9.206;2022-08-19T12:23:40;10.83;;;9.00;;
11313;SDS011;5712;48.858;9.206;2022-08-19T12:26:08;9.93;;;8.20;;
11313;SDS011;5712;48.858;9.206;2022-08-19T12:28:36;8.57;;;7.77;;
11313;SDS011;5712;48.858;9.206;2022-08-19T12:31:03;8.77;;;7.97;;
11313;SDS011;5712;48.858;9.206;2022-08-19T12:33:32;8.40;;;7.47;;
11313;SDS011;5712;48.858;9.206;2022-08-19T12:36:00;8.70;;;7.90;;
11313;SDS011;5712;48.858;9.206;2022-08-19T12:38:28;8.87;;;8.07;;
11313;SDS011;5712;48.858;9.206;2022-08-19T12:40:54;8.20;;;7.40;;
11313;SDS011;5712;48.858;9.206;2022-08-19T12:43:21;8.70;;;7.90;;
11313;SDS011;5712;48.858;9.206;2022-08-19T12:45:48;9.37;;;7.97;;
11313;SDS011;5712;48.858;9.206;2022-08-19T12:48:14;8.33;;;7.50;;
11313;SDS011;5712;48.858;9.206;2022-08-19T12:50:43;8.50;;;7.73;;
11313;SDS011;5712;48.858;9.206;2022-08-19T12:53:11;8.50;;;7.73;;
11313;SDS011;5712;48.858;9.206;2022-08-19T12:55:38;7.80;;;7.10;;
11313;SDS011;5712;48.858;9.206;2022-08-19T12:58:05;7.93;;;7.23;;
11313;SDS011;5712;48.858;9.206;2022-08-19T13:00:32;8.33;;;7.27;;
11313;SDS011;5712;48.858;9.206;2022-08-19T13:02:59;7.63;;;6.93;;
11313;SDS011;5712;48.858;9.206;2022-08-19T13:05:28;9.57;;;7.53;;
11313;SDS011;5712;48.858;9.206;2022-08-19T13:07:59;9.80;;;7.43;;
11313;SDS011;5712;48.858;9.206;2022-08-19T13:10:29;7.47;;;6.77;;
11313;SDS011;5712;48.858;9.206;2022-08-19T13:13:00;7.83;;;7.03;;
11313;SDS011;5712;48.858;9.206;2022-08-19T13:15:29;7.30;;;6.70;;
11313;SDS011;5712;48.858;9.206;2022-08-19T13:17:59;7.97;;;7.27;;
11313;SDS011;5712;48.858;9.206;2022-08-19T13:20:26;9.40;;;8.43;;
11313;SDS011;5712;48.858;9.206;2022-08-19T13:22:53;10.33;;;9.40;;
11313;SDS011;5712;48.858;9.206;2022-08-19T13:25:23;13.37;;;11.97;;
11313;SDS011;5712;48.858;9.206;2022-08-19T13:27:50;14.43;;;12.93;;
11313;SDS011;5712;48.858;9.206;2022-08-19T13:30:17;20.43;;;13.70;;
11313;SDS011;5712;48.858;9.206;2022-08-19T13:33:03;16.40;;;14.43;;
11313;SDS011;5712;48.858;9.206;2022-08-19T13:35:36;15.17;;;13.40;;
11313;SDS011;5712;48.858;9.206;2022-08-19T13:38:04;15.03;;;13.53;;
11313;SDS011;5712;48.858;9.206;2022-08-19T13:40:32;16.27;;;14.57;;
11313;SDS011;5712;48.858;9.206;2022-08-19T13:43:00;14.87;;;13.10;;
11313;SDS011;5712;48.858;9.206;2022-08-19T13:45:28;14.07;;;12.73;;
11313;SDS011;5712;48.858;9.206;2022-08-19T13:47:57;15.63;;;14.03;;
11313;SDS011;5712;48.858;9.206;2022-08-19T13:50:25;17.53;;;15.60;;
11313;SDS011;5712;48.858;9.206;2022-08-19T13:52:56;17.50;;;14.63;;
11313;SDS011;5712;48.858;9.206;2022-08-19T13:55:23;20.03;;;17.40;;
11313;SDS011;5712;48.858;9.206;2022-08-19T13:57:54;19.40;;;16.63;;
11313;SDS011;5712;48.858;9.206;2022-08-19T14:00:25;20.53;;;18.33;;
11313;SDS011;5712;48.858;9.206;2022-08-19T14:02:54;26.63;;;20.93;;
11313;SDS011;5712;48.858;9.206;2022-08-19T14:05:22;23.53;;;20.43;;
11313;SDS011;5712;48.858;9.206;2022-08-19T14:07:51;28.50;;;22.00;;
11313;SDS011;5712;48.858;9.206;2022-08-19T14:10:18;25.37;;;20.80;;
11313;SDS011;5712;48.858;9.206;2022-08-19T14:12:46;28.43;;;22.50;;
11313;SDS011;5712;48.858;9.206;2022-08-19T14:15:15;22.97;;;20.40;;
11313;SDS011;5712;48.858;9.206;2022-08-19T14:17:42;26.93;;;21.17;;
11313;SDS011;5712;48.858;9.206;2022-08-19T14:20:11;25.27;;;21.60;;
11313;SDS011;5712;48.858;9.206;2022-08-19T14:22:41;24.10;;;20.00;;
11313;SDS011;5712;48.858;9.206;2022-08-19T14:25:10;24.27;;;20.97;;
11313;SDS011;5712;48.858;9.206;2022-08-19T14:27:39;30.43;;;24.57;;
11313;SDS011;5712;48.858;9.206;2022-08-19T14:30:07;23.57;;;20.47;;
11313;SDS011;5712;48.858;9.206;2022-08-19T14:32:37;24.67;;;20.63;;
11313;SDS011;5712;48.858;9.206;2022-08-19T14:35:04;26.10;;;21.33;;
11313;SDS011;5712;48.858;9.206;2022-08-19T14:37:33;24.63;;;20.93;;
11313;SDS011;5712;48.858;9.206;2022-08-19T14:40:00;29.00;;;23.53;;
11313;SDS011;5712;48.858;9.206;2022-08-19T14:42:27;26.23;;;21.67;;
11313;SDS011;5712;48.858;9.206;2022-08-19T14:44:56;24.33;;;21.43;;
11313;SDS011;5712;48.858;9.206;2022-08-19T14:47:23;25.97;;;21.77;;